Time;durP1;ratioP1;P1;durP2;ratioP2;P2;SDS_P1;SDS_P2;PMS_P1;PMS_P2;Temp;Humidity;BMP_temperature;BMP_pressure;BME280_temperature;BME280_humidity;BME280_pressure;Samples;Min_cycle;Max_cycle;Signal;HPM_P1;HPM_P2
2021/10/19 00:01:19;;;;;;;17.15;13.10;;;13.80;92.00;;;;;;4772397;30;20051;-59
2021/10/19 00:03:45;;;;;;;19.45;11.77;;;13.70;92.20;;;;;;4774451;30;20046;-60
2021/10/19 00:06:10;;;;;;;18.25;14.38;;;13.60;92.40;;;;;;4775301;30;20405;-59
2021/10/19 00:08:36;;;;;;;23.05;14.38;;;13.70;92.60;;;;;;4775543;30;22343;-59
2021/10/19 00:11:02;;;;;;;18.55;13.80;;;13.70;92.50;;;;;;4775025;30;20058;-59
2021/10/19 00:13:28;;;;;;;17.65;11.88;;;13.60;92.50;;;;;;4773731;30;20126;-59
2021/10/19 00:15:54;;;;;;;17.40;13.82;;;13.70;92.90;;;;;;4778201;30;20069;-60
2021/10/19 00:18:19;;;;;;;18.02;13.38;;;13.80;92.80;;;;;;4776133;30;20090;-60
2021/10/19 00:20:45;;;;;;;21.85;16.15;;;13.90;92.50;;;;;;4773576;30;20417;-60
2021/10/19 00:23:11;;;;;;;20.40;14.40;;;14.00;92.40;;;;;;4774399;30;20128;-59
2021/10/19 00:25:37;;;;;;;20.92;14.10;;;14.00;92.20;;;;;;4778678;30;20044;-59
2021/10/19 00:28:04;;;;;;;20.48;14.93;;;13.90;92.10;;;;;;4773662;30;20524;-59
2021/10/19 00:30:33;;;;;;;21.45;14.60;;;13.80;92.20;;;;;;4775010;30;20043;-59
2021/10/19 00:32:59;;;;;;;23.15;14.20;;;13.70;92.30;;;;;;4773716;29;20377;-59
2021/10/19 00:35:25;;;;;;;18.25;14.35;;;13.70;92.40;;;;;;4774083;30;20039;-59
2021/10/19 00:37:51;;;;;;;17.20;13.52;;;13.80;92.60;;;;;;4760266;30;20057;-59
2021/10/19 00:40:17;;;;;;;18.10;13.18;;;13.80;92.40;;;;;;4773277;30;20055;-59
2021/10/19 00:42:43;;;;;;;18.30;13.38;;;13.80;92.40;;;;;;4774028;30;20051;-59
2021/10/19 00:45:09;;;;;;;18.90;14.43;;;13.80;92.40;;;;;;4774167;30;20130;-59
2021/10/19 00:47:35;;;;;;;18.00;13.68;;;13.80;92.50;;;;;;4773536;30;20063;-59
2021/10/19 00:50:03;;;;;;;24.17;15.30;;;13.70;92.40;;;;;;4774300;30;20047;-59
2021/10/19 00:52:29;;;;;;;19.15;13.70;;;13.70;92.40;;;;;;4773360;30;20039;-60
2021/10/19 00:54:55;;;;;;;17.30;14.75;;;13.60;92.60;;;;;;4773417;30;20050;-59
2021/10/19 00:57:21;;;;;;;19.95;14.18;;;13.70;92.70;;;;;;4774720;30;20058;-59
2021/10/19 00:59:47;;;;;;;21.58;13.55;;;13.60;92.80;;;;;;4778479;30;20068;-59
2021/10/19 01:02:15;;;;;;;21.48;14.95;;;13.60;93.00;;;;;;4773317;30;20054;-60
2021/10/19 01:04:42;;;;;;;18.70;15.23;;;13.70;92.90;;;;;;4773766;30;20054;-59
2021/10/19 01:07:08;;;;;;;19.40;14.32;;;13.60;92.70;;;;;;4773880;30;20358;-59
2021/10/19 01:09:37;;;;;;;18.17;13.63;;;13.60;92.90;;;;;;4773158;30;20047;-59
2021/10/19 01:12:05;;;;;;;23.27;15.23;;;13.60;93.00;;;;;;4756633;30;20056;-59
2021/10/19 01:14:30;;;;;;;24.35;15.45;;;13.70;93.00;;;;;;4774555;30;20122;-59
2021/10/19 01:16:57;;;;;;;21.90;15.93;;;13.70;92.80;;;;;;4774281;30;20134;-60
2021/10/19 01:19:23;;;;;;;20.88;15.38;;;13.60;92.80;;;;;;4777402;30;20173;-60
2021/10/19 01:21:55;;;;;;;21.48;15.88;;;13.50;92.90;;;;;;4773780;30;20078;-59
2021/10/19 01:24:21;;;;;;;20.83;15.77;;;13.50;93.10;;;;;;4773519;30;20054;-60
2021/10/19 01:26:47;;;;;;;19.20;15.48;;;13.50;93.20;;;;;;4774642;30;20051;-59
2021/10/19 01:29:13;;;;;;;22.40;15.65;;;13.60;93.20;;;;;;4763286;30;20070;-66
2021/10/19 01:31:40;;;;;;;22.40;16.73;;;13.60;93.10;;;;;;4771779;30;20048;-65
2021/10/19 01:34:05;;;;;;;26.00;16.52;;;13.60;93.10;;;;;;4773642;30;20047;-65
2021/10/19 01:36:31;;;;;;;20.90;15.77;;;13.60;93.10;;;;;;4774009;30;20043;-65
2021/10/19 01:38:56;;;;;;;21.45;14.90;;;13.60;93.20;;;;;;4774324;30;20043;-66
2021/10/19 01:41:22;;;;;;;22.58;17.00;;;13.60;93.30;;;;;;4771351;30;20051;-65
2021/10/19 01:43:49;;;;;;;20.10;15.77;;;13.70;93.30;;;;;;4771686;30;20055;-66
2021/10/19 01:46:15;;;;;;;21.38;16.17;;;13.70;93.20;;;;;;4771805;30;20074;-66
2021/10/19 01:48:41;;;;;;;24.52;15.35;;;13.70;93.10;;;;;;4774074;30;20043;-66
2021/10/19 01:51:07;;;;;;;21.42;16.02;;;13.60;93.20;;;;;;4771738;30;20054;-66
2021/10/19 01:53:33;;;;;;;22.80;16.80;;;13.60;93.20;;;;;;4773754;30;20035;-66
2021/10/19 01:55:58;;;;;;;20.33;15.00;;;13.60;93.30;;;;;;4777622;30;20477;-67
2021/10/19 01:58:25;;;;;;;20.77;15.35;;;13.50;93.40;;;;;;4771425;30;20054;-66
2021/10/19 02:00:52;;;;;;;26.77;14.48;;;13.50;93.60;;;;;;4771542;30;20070;-67
2021/10/19 02:03:18;;;;;;;18.80;15.70;;;13.50;93.70;;;;;;4773146;30;20084;-66
2021/10/19 02:05:44;;;;;;;20.10;14.90;;;13.50;93.70;;;;;;4773447;30;20078;-66
2021/10/19 02:08:10;;;;;;;22.05;16.77;;;13.50;93.70;;;;;;4773405;30;20130;-67
2021/10/19 02:10:36;;;;;;;23.95;15.65;;;13.60;93.70;;;;;;4772121;30;20097;-66
2021/10/19 02:13:04;;;;;;;22.95;16.33;;;13.60;93.70;;;;;;4773421;30;20059;-66
2021/10/19 02:15:31;;;;;;;21.50;16.02;;;13.60;93.70;;;;;;4773937;30;20047;-65
2021/10/19 02:17:57;;;;;;;19.35;13.88;;;13.50;93.80;;;;;;4776944;30;20063;-66
2021/10/19 02:20:23;;;;;;;19.20;15.10;;;13.50;94.00;;;;;;4771315;30;20112;-66
2021/10/19 02:22:50;;;;;;;21.05;14.95;;;13.60;94.00;;;;;;4777585;30;20512;-66
2021/10/19 02:25:16;;;;;;;22.65;16.23;;;13.50;93.90;;;;;;4772649;30;20062;-66
2021/10/19 02:27:42;;;;;;;22.70;16.85;;;13.50;93.90;;;;;;4773085;30;20035;-65
2021/10/19 02:30:08;;;;;;;20.45;15.75;;;13.50;93.90;;;;;;4772197;30;20516;-66
2021/10/19 02:32:35;;;;;;;19.88;14.65;;;13.50;94.10;;;;;;4773011;30;20114;-66
2021/10/19 02:35:01;;;;;;;21.55;14.45;;;13.50;94.10;;;;;;4771503;30;20054;-67
2021/10/19 02:37:28;;;;;;;18.58;15.27;;;13.50;94.20;;;;;;4773815;30;20047;-66
2021/10/19 02:39:54;;;;;;;19.75;14.10;;;13.50;94.20;;;;;;4771663;30;20047;-67
2021/10/19 02:42:20;;;;;;;21.85;15.07;;;13.50;94.30;;;;;;4772500;30;20054;-66
2021/10/19 02:44:45;;;;;;;19.45;14.48;;;13.60;94.30;;;;;;4776948;30;20043;-66
2021/10/19 02:47:11;;;;;;;18.80;15.00;;;13.60;94.30;;;;;;4773460;30;20417;-66
2021/10/19 02:49:37;;;;;;;19.10;15.23;;;13.60;94.20;;;;;;4773411;30;20039;-66
2021/10/19 02:52:03;;;;;;;17.88;13.50;;;13.60;94.20;;;;;;4770797;30;20044;-67
2021/10/19 02:54:28;;;;;;;16.85;13.55;;;13.70;94.20;;;;;;4773817;30;20181;-66
2021/10/19 02:56:54;;;;;;;21.60;14.45;;;13.70;94.20;;;;;;4774159;29;20134;-65
2021/10/19 02:59:20;;;;;;;15.73;11.90;;;13.80;94.30;;;;;;4775125;29;20078;-66
2021/10/19 03:01:45;;;;;;;19.98;14.38;;;13.80;94.30;;;;;;4775195;30;20077;-66
2021/10/19 03:04:11;;;;;;;19.63;14.45;;;13.90;94.10;;;;;;4775717;30;20054;-66
2021/10/19 03:06:37;;;;;;;20.00;15.73;;;13.90;94.00;;;;;;4776549;30;20044;-66
2021/10/19 03:09:03;;;;;;;15.45;12.77;;;13.90;94.00;;;;;;4776458;30;20039;-66
2021/10/19 03:11:28;;;;;;;19.52;14.38;;;13.90;94.00;;;;;;4775551;30;20878;-66
2021/10/19 03:13:54;;;;;;;19.98;14.65;;;13.90;94.10;;;;;;4776136;30;20047;-66
2021/10/19 03:16:20;;;;;;;18.02;13.48;;;13.80;94.00;;;;;;4777677;30;20116;-66
2021/10/19 03:18:46;;;;;;;22.55;15.70;;;13.80;94.10;;;;;;4774999;30;20100;-66
2021/10/19 03:21:12;;;;;;;18.95;14.60;;;13.70;94.10;;;;;;4779760;30;20047;-67
2021/10/19 03:23:37;;;;;;;18.80;13.68;;;13.70;94.20;;;;;;4775658;30;20059;-67
2021/10/19 03:26:03;;;;;;;20.80;14.52;;;13.60;94.30;;;;;;4774674;30;20099;-67
2021/10/19 03:28:30;;;;;;;20.40;15.27;;;13.60;94.50;;;;;;4775671;30;20078;-66
2021/10/19 03:30:56;;;;;;;23.58;15.40;;;13.60;94.50;;;;;;4759238;30;20106;-67
2021/10/19 03:33:21;;;;;;;23.30;14.90;;;13.60;94.70;;;;;;4775747;30;20938;-66
2021/10/19 03:35:47;;;;;;;17.42;12.77;;;13.60;94.50;;;;;;4776749;30;20135;-66
2021/10/19 03:38:13;;;;;;;21.58;15.00;;;13.60;94.70;;;;;;4775303;30;20507;-67
2021/10/19 03:40:38;;;;;;;17.95;14.55;;;13.60;94.70;;;;;;4775175;30;20058;-66
2021/10/19 03:43:06;;;;;;;18.85;14.88;;;13.60;94.60;;;;;;4775608;30;20084;-66
2021/10/19 03:45:31;;;;;;;21.00;15.48;;;13.60;94.60;;;;;;4773975;30;20081;-66
2021/10/19 03:47:57;;;;;;;17.27;13.85;;;13.60;94.60;;;;;;4775597;30;20497;-66
2021/10/19 03:50:23;;;;;;;16.45;13.05;;;13.50;94.70;;;;;;4779280;30;20054;-66
2021/10/19 03:52:49;;;;;;;20.83;15.10;;;13.50;94.90;;;;;;4775337;30;20047;-66
2021/10/19 03:55:15;;;;;;;18.85;14.32;;;13.50;94.90;;;;;;4776281;30;20400;-67
2021/10/19 03:57:41;;;;;;;19.00;14.90;;;13.60;94.90;;;;;;4758379;30;20051;-66
2021/10/19 04:00:08;;;;;;;20.10;14.77;;;13.60;94.90;;;;;;4774222;30;20069;-66
2021/10/19 04:02:34;;;;;;;19.40;15.40;;;13.60;94.90;;;;;;4775159;30;20104;-66
2021/10/19 04:05:00;;;;;;;19.55;14.98;;;13.60;94.80;;;;;;4774911;30;20044;-66
2021/10/19 04:07:25;;;;;;;24.27;14.07;;;13.60;94.90;;;;;;4775208;30;20087;-66
2021/10/19 04:09:51;;;;;;;19.70;16.00;;;13.60;94.90;;;;;;4773537;30;20560;-66
2021/10/19 04:12:17;;;;;;;19.85;15.30;;;13.50;95.00;;;;;;4775271;30;20039;-66
2021/10/19 04:14:42;;;;;;;21.38;15.40;;;13.50;95.10;;;;;;4775628;30;20051;-66
2021/10/19 04:17:08;;;;;;;20.55;14.48;;;13.40;95.10;;;;;;4775449;30;20116;-66
2021/10/19 04:19:34;;;;;;;19.17;16.10;;;13.40;95.20;;;;;;4774490;30;20047;-66
2021/10/19 04:21:59;;;;;;;23.38;16.58;;;13.50;95.30;;;;;;4774371;30;20070;-66
2021/10/19 04:24:25;;;;;;;23.75;16.42;;;13.40;95.30;;;;;;4772886;30;20075;-67
2021/10/19 04:26:51;;;;;;;18.38;15.32;;;13.40;95.30;;;;;;4778682;30;21229;-66
2021/10/19 04:29:17;;;;;;;20.65;15.63;;;13.30;95.30;;;;;;4772801;30;20139;-66
2021/10/19 04:31:42;;;;;;;22.15;16.48;;;13.30;95.50;;;;;;4772867;30;20115;-66
2021/10/19 04:34:08;;;;;;;24.05;16.27;;;13.30;95.60;;;;;;4774866;30;20104;-66
2021/10/19 04:36:34;;;;;;;19.67;16.17;;;13.30;95.60;;;;;;4775007;30;20059;-65
2021/10/19 04:39:00;;;;;;;22.20;16.70;;;13.30;95.70;;;;;;4773091;30;20055;-65
2021/10/19 04:41:26;;;;;;;21.35;16.10;;;13.30;95.70;;;;;;4773439;30;20523;-66
2021/10/19 04:43:52;;;;;;;22.73;16.38;;;13.40;95.80;;;;;;4774123;30;20065;-66
2021/10/19 04:46:18;;;;;;;21.63;16.75;;;13.40;95.90;;;;;;4774813;30;20520;-65
2021/10/19 04:48:44;;;;;;;21.70;16.20;;;13.40;95.90;;;;;;4773174;30;20439;-65
2021/10/19 04:51:10;;;;;;;25.63;17.33;;;13.40;96.00;;;;;;4774228;30;20043;-65
2021/10/19 04:53:36;;;;;;;24.45;17.27;;;13.40;96.20;;;;;;4775005;30;20149;-66
2021/10/19 04:56:03;;;;;;;19.73;16.02;;;13.40;96.20;;;;;;4774542;30;20052;-65
2021/10/19 04:58:29;;;;;;;23.33;16.80;;;13.40;96.20;;;;;;4772535;30;20047;-66
2021/10/19 05:00:55;;;;;;;25.70;17.40;;;13.50;96.20;;;;;;4774599;30;20562;-66
2021/10/19 05:03:21;;;;;;;21.30;17.10;;;13.50;96.20;;;;;;4773984;30;20050;-66
2021/10/19 05:05:47;;;;;;;25.52;16.67;;;13.50;96.10;;;;;;4774170;30;20096;-65
2021/10/19 05:08:12;;;;;;;19.55;15.15;;;13.50;96.10;;;;;;4771008;30;20040;-65
2021/10/19 05:10:38;;;;;;;20.88;16.00;;;13.50;96.10;;;;;;4774257;30;20617;-65
2021/10/19 05:13:04;;;;;;;19.85;16.20;;;13.60;96.40;;;;;;4775020;30;20134;-60
2021/10/19 05:15:30;;;;;;;24.67;17.38;;;13.60;96.10;;;;;;4774205;30;20038;-59
2021/10/19 05:17:56;;;;;;;19.42;15.88;;;13.50;96.10;;;;;;4773943;30;20579;-59
2021/10/19 05:20:22;;;;;;;22.88;15.82;;;13.50;96.20;;;;;;4772934;30;20056;-60
2021/10/19 05:22:49;;;;;;;19.88;15.85;;;13.50;96.30;;;;;;4774606;30;20121;-60
2021/10/19 05:25:16;;;;;;;21.27;15.68;;;13.60;96.30;;;;;;4773703;30;20585;-60
2021/10/19 05:27:42;;;;;;;19.10;14.52;;;13.50;96.20;;;;;;4771173;30;20132;-60
2021/10/19 05:30:08;;;;;;;21.38;16.02;;;13.60;96.20;;;;;;4777875;30;20055;-60
2021/10/19 05:32:34;;;;;;;21.17;15.35;;;13.60;96.20;;;;;;4774651;30;20118;-60
2021/10/19 05:35:00;;;;;;;20.60;14.90;;;13.60;96.20;;;;;;4771606;30;20058;-60
2021/10/19 05:37:26;;;;;;;23.45;16.08;;;13.60;96.30;;;;;;4773349;30;20051;-60
2021/10/19 05:39:52;;;;;;;19.73;16.17;;;13.60;96.30;;;;;;4773642;30;20055;-61
2021/10/19 05:42:18;;;;;;;24.75;16.88;;;13.60;96.30;;;;;;4771907;30;20081;-62
2021/10/19 05:44:44;;;;;;;18.48;14.80;;;13.60;96.40;;;;;;4762630;30;20047;-62
2021/10/19 05:47:09;;;;;;;20.40;15.52;;;13.60;96.50;;;;;;4771567;30;20432;-63
2021/10/19 05:49:36;;;;;;;21.30;16.73;;;13.60;96.60;;;;;;4772758;30;20043;-63
2021/10/19 05:52:03;;;;;;;22.60;17.13;;;13.50;96.80;;;;;;4773325;30;20054;-62
2021/10/19 05:54:28;;;;;;;22.23;16.58;;;13.50;96.90;;;;;;4761254;30;20471;-63
2021/10/19 05:56:55;;;;;;;24.77;17.83;;;13.50;97.00;;;;;;4774166;30;20054;-64
2021/10/19 05:59:21;;;;;;;26.58;17.52;;;13.50;97.20;;;;;;4771980;30;20051;-64
2021/10/19 06:01:47;;;;;;;26.02;17.70;;;13.50;97.30;;;;;;4761731;30;20055;-64
2021/10/19 06:04:13;;;;;;;21.27;16.77;;;13.50;97.40;;;;;;4769836;29;20059;-64
2021/10/19 06:06:39;;;;;;;26.88;17.85;;;13.40;97.50;;;;;;4771401;30;20399;-64
2021/10/19 06:09:05;;;;;;;26.38;17.10;;;13.50;97.50;;;;;;4756284;30;20054;-64
2021/10/19 06:11:31;;;;;;;25.42;18.27;;;13.50;97.60;;;;;;4771796;29;20501;-64
2021/10/19 06:13:56;;;;;;;22.95;18.27;;;13.40;97.60;;;;;;4771691;30;20086;-64
2021/10/19 06:16:22;;;;;;;24.85;18.45;;;13.40;97.80;;;;;;4746585;30;20116;-64
2021/10/19 06:18:48;;;;;;;30.38;18.83;;;13.40;97.90;;;;;;4772032;30;20432;-64
2021/10/19 06:21:14;;;;;;;29.95;18.48;;;13.40;98.00;;;;;;4776420;30;20411;-64
2021/10/19 06:23:40;;;;;;;20.50;11.60;;;13.40;98.10;;;;;;4772893;29;20125;-61
2021/10/19 06:26:06;;;;;;;29.33;19.27;;;13.30;98.20;;;;;;4773089;29;20046;-61
2021/10/19 06:28:33;;;;;;;27.65;18.08;;;13.40;98.40;;;;;;4771297;30;20493;-59
2021/10/19 06:30:58;;;;;;;29.05;18.30;;;13.40;98.50;;;;;;4772820;29;20150;-59
2021/10/19 06:33:24;;;;;;;29.10;18.80;;;13.40;98.50;;;;;;4778498;30;20131;-58
2021/10/19 06:35:50;;;;;;;25.55;19.05;;;13.40;98.60;;;;;;4775784;30;20070;-60
2021/10/19 06:38:16;;;;;;;31.02;20.67;;;13.40;98.60;;;;;;4775197;29;20466;-60
2021/10/19 06:40:41;;;;;;;28.65;18.02;;;13.40;98.60;;;;;;4777215;29;20067;-60
2021/10/19 06:43:08;;;;;;;22.30;16.65;;;13.40;98.70;;;;;;4773278;30;20079;-60
2021/10/19 06:45:34;;;;;;;27.73;18.38;;;13.40;98.80;;;;;;4775095;30;20144;-60
2021/10/19 06:48:00;;;;;;;29.92;18.65;;;13.40;98.80;;;;;;4776060;30;20146;-60
2021/10/19 06:50:26;;;;;;;24.13;16.88;;;13.50;99.00;;;;;;4776008;30;20066;-61
2021/10/19 06:52:51;;;;;;;23.33;17.92;;;13.50;98.80;;;;;;4759259;30;20095;-60
2021/10/19 06:55:19;;;;;;;23.88;17.70;;;13.60;98.70;;;;;;4775713;30;20187;-60
2021/10/19 06:57:45;;;;;;;25.23;17.80;;;13.60;98.80;;;;;;4775841;30;20059;-61
2021/10/19 07:00:13;;;;;;;26.20;18.85;;;13.60;98.80;;;;;;4774795;30;20120;-58
2021/10/19 07:02:39;;;;;;;24.33;17.70;;;13.70;98.80;;;;;;4775849;30;20115;-58
2021/10/19 07:05:06;;;;;;;27.67;19.65;;;13.70;98.80;;;;;;4773652;30;20125;-58
2021/10/19 07:07:33;;;;;;;24.65;18.27;;;13.60;98.80;;;;;;4774941;30;20051;-58
2021/10/19 07:10:00;;;;;;;26.50;18.92;;;13.70;98.90;;;;;;4789472;29;20055;-58
2021/10/19 07:12:26;;;;;;;28.88;19.30;;;13.70;98.90;;;;;;4775052;30;20122;-58
2021/10/19 07:14:51;;;;;;;32.13;19.27;;;13.70;98.90;;;;;;4775545;30;20477;-61
2021/10/19 07:17:17;;;;;;;25.20;18.63;;;13.70;99.00;;;;;;4775681;30;20054;-58
2021/10/19 07:19:43;;;;;;;26.02;18.90;;;13.70;99.00;;;;;;4778736;30;20097;-58
2021/10/19 07:22:08;;;;;;;27.95;21.17;;;13.70;99.10;;;;;;4779336;30;20117;-59
2021/10/19 07:24:34;;;;;;;30.02;19.70;;;13.70;99.10;;;;;;4775096;30;20047;-59
2021/10/19 07:27:00;;;;;;;27.35;19.27;;;13.70;99.20;;;;;;4775516;30;20047;-59
2021/10/19 07:29:26;;;;;;;31.90;21.35;;;13.70;99.30;;;;;;4775468;30;20046;-61
2021/10/19 07:31:52;;;;;;;36.45;22.13;;;13.70;99.40;;;;;;4774228;30;20040;-61
2021/10/19 07:34:17;;;;;;;34.53;22.92;;;13.60;99.40;;;;;;4775188;30;20392;-61
2021/10/19 07:36:43;;;;;;;21.95;17.25;;;13.70;99.60;;;;;;4775490;30;20061;-61
2021/10/19 07:39:09;;;;;;;34.17;22.15;;;13.60;99.60;;;;;;4772399;30;20439;-59
2021/10/19 07:41:36;;;;;;;32.53;22.58;;;13.60;99.70;;;;;;4775602;30;20043;-59
2021/10/19 07:44:08;;;;;;;36.10;23.08;;;13.60;99.80;;;;;;4772823;29;20520;-58
2021/10/19 07:46:34;;;;;;;30.33;20.98;;;13.60;99.80;;;;;;4778714;30;20130;-58
2021/10/19 07:49:01;;;;;;;34.03;22.35;;;13.60;99.90;;;;;;4774267;30;20059;-59
2021/10/19 07:51:27;;;;;;;28.20;21.05;;;13.60;99.90;;;;;;4778891;30;20059;-58
2021/10/19 07:53:52;;;;;;;28.88;20.17;;;13.70;99.90;;;;;;4773769;30;20039;-58
2021/10/19 07:56:20;;;;;;;27.38;19.23;;;13.70;99.90;;;;;;4778646;30;20083;-59
2021/10/19 07:58:47;;;;;;;29.30;20.30;;;13.70;99.90;;;;;;4773379;30;20071;-59
2021/10/19 08:01:13;;;;;;;32.22;21.63;;;13.80;99.90;;;;;;4774521;30;20078;-59
2021/10/19 08:03:39;;;;;;;27.20;19.42;;;13.80;99.90;;;;;;4774627;29;20040;-58
2021/10/19 08:06:05;;;;;;;25.83;18.08;;;13.90;99.90;;;;;;4775112;30;20036;-58
2021/10/19 08:08:31;;;;;;;26.52;19.67;;;13.90;99.90;;;;;;4774933;30;20078;-59
2021/10/19 08:10:56;;;;;;;24.05;18.52;;;13.90;99.90;;;;;;4772202;30;20406;-59
2021/10/19 08:13:22;;;;;;;18.77;14.98;;;13.90;99.90;;;;;;4774997;30;20119;-59
2021/10/19 08:15:48;;;;;;;23.63;17.52;;;14.00;99.90;;;;;;4775448;30;20077;-59
2021/10/19 08:18:14;;;;;;;26.15;18.10;;;14.00;99.90;;;;;;4774245;30;20052;-60
2021/10/19 08:20:40;;;;;;;22.30;18.13;;;14.10;99.90;;;;;;4774158;30;20126;-61
2021/10/19 08:23:07;;;;;;;22.48;16.92;;;14.10;99.90;;;;;;4774747;30;20039;-59
2021/10/19 08:25:32;;;;;;;20.15;16.17;;;14.20;99.90;;;;;;4773327;30;20447;-59
2021/10/19 08:27:59;;;;;;;20.77;16.77;;;14.20;99.90;;;;;;4774062;30;20051;-58
2021/10/19 08:30:24;;;;;;;24.40;17.95;;;14.20;99.90;;;;;;4773432;30;20051;-59
2021/10/19 08:32:51;;;;;;;22.17;17.63;;;14.20;99.90;;;;;;4774326;30;20446;-59
2021/10/19 08:35:18;;;;;;;22.80;18.17;;;14.30;99.90;;;;;;4775179;30;20053;-59
2021/10/19 08:37:45;;;;;;;22.23;17.77;;;14.30;99.90;;;;;;4774550;30;20036;-58
2021/10/19 08:40:11;;;;;;;20.83;16.48;;;14.30;99.90;;;;;;4773735;30;20132;-60
2021/10/19 08:42:44;;;;;;;24.15;17.30;;;14.30;99.90;;;;;;4773737;30;20051;-59
2021/10/19 08:45:11;;;;;;;22.13;17.30;;;14.30;99.90;;;;;;4773777;30;20113;-58
2021/10/19 08:47:36;;;;;;;20.05;15.70;;;14.30;99.90;;;;;;4773995;30;20366;-60
2021/10/19 08:50:04;;;;;;;22.73;17.15;;;14.40;99.90;;;;;;4774015;30;20470;-58
2021/10/19 08:52:29;;;;;;;22.38;17.33;;;14.40;99.90;;;;;;4773572;30;20059;-58
2021/10/19 08:54:55;;;;;;;24.23;17.63;;;14.40;99.90;;;;;;4773744;30;20412;-61
2021/10/19 08:57:21;;;;;;;33.90;23.10;;;14.40;99.90;;;;;;4772410;30;20063;-59
2021/10/19 08:59:48;;;;;;;24.10;19.65;;;14.40;99.90;;;;;;4772258;30;20142;-59
2021/10/19 09:02:14;;;;;;;97.65;25.70;;;14.50;99.90;;;;;;4772277;30;20176;-60
2021/10/19 09:04:42;;;;;;;23.83;18.15;;;14.50;99.90;;;;;;4774538;30;20047;-59
2021/10/19 09:07:08;;;;;;;24.88;17.83;;;14.50;99.90;;;;;;4772511;29;20063;-59
2021/10/19 09:09:35;;;;;;;23.67;17.38;;;14.50;99.90;;;;;;4777600;30;20035;-59
2021/10/19 09:12:01;;;;;;;20.92;17.55;;;14.50;99.90;;;;;;4774665;30;20047;-59
2021/10/19 09:14:37;;;;;;;22.15;16.63;;;14.50;99.90;;;;;;4774499;30;20075;-60
2021/10/19 09:17:04;;;;;;;19.80;16.27;;;14.60;99.90;;;;;;4771671;30;20493;-59
2021/10/19 09:19:34;;;;;;;29.45;16.88;;;14.60;99.90;;;;;;4777869;30;20159;-60
2021/10/19 09:22:05;;;;;;;63.63;23.52;;;14.60;99.90;;;;;;4772245;30;20075;-59
2021/10/19 09:24:40;;;;;;;23.50;16.65;;;14.60;99.90;;;;;;4774138;30;20047;-60
2021/10/19 09:27:14;;;;;;;20.08;15.50;;;14.60;99.90;;;;;;4773158;30;20054;-59
2021/10/19 09:29:46;;;;;;;19.48;16.15;;;14.70;99.90;;;;;;4773147;30;20086;-60
2021/10/19 09:32:13;;;;;;;15.15;13.05;;;14.60;99.90;;;;;;4777250;30;20043;-60
2021/10/19 09:34:41;;;;;;;16.67;13.18;;;14.70;99.90;;;;;;4772497;30;20471;-60
2021/10/19 09:37:09;;;;;;;17.88;14.25;;;14.70;99.90;;;;;;4771398;30;20055;-60
2021/10/19 09:39:45;;;;;;;17.63;14.55;;;14.70;99.90;;;;;;4772821;30;20046;-61
2021/10/19 09:42:20;;;;;;;20.52;16.27;;;14.80;99.90;;;;;;4758006;30;20260;-60
2021/10/19 09:44:58;;;;;;;16.92;13.32;;;14.80;99.90;;;;;;4772571;29;20055;-59
2021/10/19 09:47:37;;;;;;;15.90;13.50;;;14.90;99.90;;;;;;4773791;30;20095;-58
2021/10/19 09:50:08;;;;;;;17.23;14.18;;;14.90;99.90;;;;;;4774439;30;20040;-59
2021/10/19 09:52:37;;;;;;;19.70;15.20;;;14.90;99.90;;;;;;4772698;29;20115;-59
2021/10/19 09:55:05;;;;;;;22.25;15.48;;;14.80;99.90;;;;;;4771186;29;20079;-60
2021/10/19 09:57:32;;;;;;;18.38;14.82;;;14.80;99.90;;;;;;4787342;29;20050;-59
2021/10/19 09:59:58;;;;;;;20.88;15.48;;;14.80;99.90;;;;;;4773333;30;20390;-59
2021/10/19 10:02:25;;;;;;;20.35;15.55;;;14.80;99.90;;;;;;4777151;30;20527;-60
2021/10/19 10:04:52;;;;;;;19.10;14.77;;;14.80;99.90;;;;;;4773499;30;20112;-59
2021/10/19 10:07:18;;;;;;;17.95;14.63;;;14.80;99.90;;;;;;4777115;29;22155;-59
2021/10/19 10:09:45;;;;;;;18.40;15.43;;;14.80;99.90;;;;;;4776889;30;20055;-59
2021/10/19 10:12:11;;;;;;;18.92;15.88;;;14.80;99.90;;;;;;4775620;30;20134;-59
2021/10/19 10:14:44;;;;;;;21.25;14.50;;;14.80;99.90;;;;;;4776091;30;20047;-64
2021/10/19 10:17:10;;;;;;;21.50;15.57;;;14.80;99.90;;;;;;4776692;30;20055;-64
2021/10/19 10:19:37;;;;;;;20.27;15.70;;;14.80;99.90;;;;;;4775194;30;20048;-65
2021/10/19 10:22:18;;;;;;;17.80;14.90;;;14.80;99.90;;;;;;4776422;30;20499;-64
2021/10/19 10:24:44;;;;;;;15.35;12.40;;;14.80;99.90;;;;;;4778295;30;20047;-64
2021/10/19 10:27:16;;;;;;;40.08;16.92;;;14.90;99.90;;;;;;4775592;30;20054;-65
2021/10/19 10:29:48;;;;;;;24.55;16.83;;;14.80;99.90;;;;;;4776258;30;20464;-64
2021/10/19 10:32:22;;;;;;;17.80;14.77;;;14.90;99.90;;;;;;4776129;29;20042;-64
2021/10/19 10:35:01;;;;;;;18.63;15.20;;;14.90;99.90;;;;;;4776484;30;20772;-65
2021/10/19 10:37:45;;;;;;;17.65;15.65;;;14.90;99.90;;;;;;4781090;30;20139;-65
2021/10/19 10:40:24;;;;;;;30.50;16.70;;;14.90;99.90;;;;;;4775547;30;20058;-65
2021/10/19 10:42:50;;;;;;;21.50;15.70;;;14.90;99.90;;;;;;4778233;30;20651;-65
2021/10/19 10:45:34;;;;;;;20.35;14.95;;;14.90;99.90;;;;;;4780215;30;20126;-65
2021/10/19 10:48:05;;;;;;;19.67;15.48;;;14.90;99.90;;;;;;4775840;30;20174;-64
2021/10/19 10:50:34;;;;;;;20.73;15.50;;;14.90;99.90;;;;;;4776585;30;20044;-64
2021/10/19 10:53:02;;;;;;;19.48;14.77;;;15.00;99.90;;;;;;4776462;30;20129;-64
2021/10/19 10:55:32;;;;;;;26.20;15.85;;;15.00;99.90;;;;;;4776444;30;20047;-64
2021/10/19 10:57:57;;;;;;;18.35;14.40;;;15.00;99.90;;;;;;4775957;30;20055;-65
2021/10/19 11:00:25;;;;;;;15.38;13.43;;;15.10;99.90;;;;;;4775831;29;20071;-65
2021/10/19 11:03:05;;;;;;;14.85;13.25;;;15.10;99.90;;;;;;4775075;30;20072;-66
2021/10/19 11:05:31;;;;;;;18.63;14.48;;;15.10;99.90;;;;;;4775126;30;20493;-65
2021/10/19 11:07:57;;;;;;;16.33;13.75;;;15.20;99.90;;;;;;4774151;30;20058;-65
2021/10/19 11:10:23;;;;;;;14.18;12.23;;;15.20;99.90;;;;;;4779527;30;20205;-64
2021/10/19 11:12:59;;;;;;;15.30;13.55;;;15.30;99.90;;;;;;4776462;30;20114;-66
2021/10/19 11:15:25;;;;;;;13.82;12.32;;;15.30;99.90;;;;;;4775980;30;20048;-66
2021/10/19 11:17:52;;;;;;;14.70;13.10;;;15.40;99.90;;;;;;4773207;29;20522;-65
2021/10/19 11:20:20;;;;;;;17.05;13.77;;;15.40;99.90;;;;;;4774655;29;20055;-64
2021/10/19 11:22:48;;;;;;;16.10;12.93;;;15.40;99.90;;;;;;4774117;30;20043;-65
2021/10/19 11:25:14;;;;;;;15.23;12.45;;;15.40;99.90;;;;;;4774640;30;20079;-65
2021/10/19 11:27:41;;;;;;;14.00;11.95;;;15.50;99.90;;;;;;4776181;30;20039;-66
2021/10/19 11:30:08;;;;;;;13.43;11.27;;;15.50;99.90;;;;;;4773778;29;20051;-65
2021/10/19 11:32:35;;;;;;;12.52;10.07;;;15.50;99.90;;;;;;4776060;30;20044;-64
2021/10/19 11:35:02;;;;;;;11.35;9.40;;;15.60;99.90;;;;;;4776189;30;20079;-64
2021/10/19 11:37:28;;;;;;;11.05;9.90;;;15.60;99.90;;;;;;4774959;30;20062;-65
2021/10/19 11:40:05;;;;;;;11.65;9.77;;;15.60;99.90;;;;;;4778786;30;20051;-65
2021/10/19 11:42:51;;;;;;;15.43;9.85;;;15.70;99.90;;;;;;4775804;30;20148;-64
2021/10/19 11:45:19;;;;;;;11.30;9.90;;;15.70;99.90;;;;;;4775056;30;20051;-64
2021/10/19 11:47:46;;;;;;;11.10;9.25;;;15.70;99.90;;;;;;4774778;30;20056;-65
2021/10/19 11:50:13;;;;;;;10.20;9.20;;;15.70;99.90;;;;;;4775364;30;20079;-65
2021/10/19 11:52:40;;;;;;;8.02;6.07;;;15.80;99.90;;;;;;4776045;30;20097;-64
2021/10/19 11:55:06;;;;;;;8.82;5.60;;;15.80;99.90;;;;;;4775212;30;20039;-65
2021/10/19 11:57:39;;;;;;;9.25;8.27;;;15.90;99.90;;;;;;4774703;30;20039;-65
2021/10/19 12:00:10;;;;;;;9.15;8.20;;;16.10;99.90;;;;;;4775661;30;20457;-65
2021/10/19 12:02:45;;;;;;;8.35;6.28;;;16.10;99.90;;;;;;4769306;29;20653;-65
2021/10/19 12:05:11;;;;;;;6.85;5.50;;;16.20;99.90;;;;;;4755740;29;20039;-65
2021/10/19 12:07:48;;;;;;;8.20;7.10;;;16.40;99.90;;;;;;4770764;30;20058;-67
2021/10/19 12:10:14;;;;;;;8.02;6.50;;;16.40;99.90;;;;;;4773385;30;20043;-66
2021/10/19 12:13:03;;;;;;;6.22;4.93;;;16.50;99.90;;;;;;4772452;30;20131;-65
2021/10/19 12:15:32;;;;;;;5.82;5.10;;;16.50;99.90;;;;;;4773084;30;20058;-65
2021/10/19 12:18:00;;;;;;;7.82;7.03;;;16.50;99.90;;;;;;4773147;30;20122;-66
2021/10/19 12:20:31;;;;;;;8.05;5.82;;;16.50;99.90;;;;;;4772974;30;20385;-65
2021/10/19 12:23:06;;;;;;;5.75;5.05;;;16.60;99.90;;;;;;4773024;30;20051;-66
2021/10/19 12:25:35;;;;;;;5.70;5.20;;;16.60;99.90;;;;;;4775118;29;20046;-66
2021/10/19 12:28:01;;;;;;;4.15;3.00;;;16.70;99.90;;;;;;4774764;30;20051;-66